21 Aug 2018 01:50 UTC 2018233+01:50 UTC

Overview Datums Bench Marks Data Query Site Visit Daily QC Messages Attributes

170: National Park Service - Baffin Bay

27° 17' 49" N   97° 24' 17" W
NPSBB
United States National Park Service United States National Park Service

Station Information

National Park Service - Baffin Bay
National Park Service - Baffin Bay
more pictures
 
Station Name:National Park Service - Baffin Bay
DNR ID:170
Location:27° 17' 49" N, 97° 24' 17" W

Water Level Forecasts

Latest Observations

Series Metric English Marine Observed at
Water Temperature 32.6 °C 90.7 °F 90.7 °F Aug 20 20:30 CDT
00h19m ago
Salinity 34.000 psu 34.000 psu 34.000 psu Aug 20 20:30 CDT
00h19m ago
pH 8.81 pH 8.81 pH 8.81 pH Aug 20 20:30 CDT
00h19m ago
Turbidity 9 ntu 9 ntu 9 ntu Aug 20 20:30 CDT
00h19m ago
Dissolved Oxygen 3.71 mg/L 0.000232 lb/ft3 0.000232 lb/ft3 Aug 20 20:30 CDT
00h19m ago

Maps

National Park Service - Baffin Bay
All Stations in Area
Entire Network
 

Recent Observations

Date/Time Water
Temp (°F)
Sal (psu) pH (pH) Turb (ntu) DO (lb/ft3)
Aug 20 20:00 CDT 91.4 34.000 8.84 4 0.000267
Aug 20 19:00 CDT 91.8 34.000 8.78 4 0.000267
Aug 20 18:00 CDT 92.1 33.900 8.73 4 0.000275
Aug 20 17:00 CDT 92.3 33.900 8.66 4 0.000282
Aug 20 16:00 CDT 91.9 33.900 8.52 4 0.000274
Aug 20 15:00 CDT 90.7 33.900 8.42 4 0.000237
Aug 20 14:00 CDT 89.4 33.900 8.38 5 0.000189
Aug 20 13:00 CDT 88.9 34.000 8.41 5 0.000194
Aug 20 12:00 CDT 86.0 33.800 8.23 5 0.000140
Aug 20 11:00 CDT 84.9 33.800 8.30 4 0.000113
Aug 20 10:00 CDT 84.4 33.800 8.37 5 0.000103
Aug 20 09:00 CDT 84.6 33.800 8.45 4 0.000115
Aug 20 08:00 CDT 84.4 33.800 8.47 4 0.000113
Aug 20 07:00 CDT 84.2 33.800 8.48 4 0.000110
Aug 20 06:00 CDT 84.4 33.700 8.51 4 0.000108
Aug 20 05:00 CDT 85.5 33.700 8.54 4 0.000129
Aug 20 04:00 CDT 85.3 33.700 8.57 4 0.000137
Aug 20 03:00 CDT 84.0 33.800 8.62 4 0.000093
Aug 20 02:00 CDT 85.5 33.700 8.67 4 0.000125
Aug 20 01:00 CDT 86.2 33.600 8.70 4 0.000150
Aug 20 00:00 CDT 86.5 33.600 8.72 4 0.000149
Aug 19 23:00 CDT 87.4 33.500 8.71 5 0.000154
Aug 19 22:00 CDT 87.8 33.500 8.86 6 0.000192
Aug 19 21:00 CDT 88.7 33.400 8.78 8 0.000189
Aug 19 20:00 CDT 90.0 33.400 8.88 9 0.000204

Historical Data Availability